Time;durP1;ratioP1;P1;durP2;ratioP2;P2;SDS_P1;SDS_P2;PMS_P1;PMS_P2;Temp;Humidity;BMP_temperature;BMP_pressure;BME280_temperature;BME280_humidity;BME280_pressure;Samples;Min_cycle;Max_cycle;Signal;HPM_P1;HPM_P2
2023/09/12 00:02:05;;;;;;;14.17;10.67;;;20.70;99.90;;;;;;5196431;28;20286;-49
2023/09/12 00:04:35;;;;;;;22.03;12.00;;;20.70;99.90;;;;;;5196087;28;20519;-49
2023/09/12 00:07:06;;;;;;;22.60;11.63;;;20.70;99.90;;;;;;5198356;28;20190;-48
2023/09/12 00:09:37;;;;;;;25.27;11.90;;;20.70;99.90;;;;;;5198340;28;20229;-48
2023/09/12 00:12:08;;;;;;;18.23;11.90;;;20.70;99.90;;;;;;5209323;28;20200;-47
2023/09/12 00:14:38;;;;;;;16.63;9.90;;;20.70;99.90;;;;;;5190134;28;20180;-47
2023/09/12 00:17:09;;;;;;;19.00;10.80;;;20.60;99.90;;;;;;5194961;28;20222;-47
2023/09/12 00:19:40;;;;;;;15.67;11.07;;;20.50;99.90;;;;;;5200639;28;20255;-47
2023/09/12 00:22:11;;;;;;;26.93;11.63;;;20.50;99.90;;;;;;5202525;28;20516;-47
2023/09/12 00:24:41;;;;;;;31.40;12.00;;;20.40;99.90;;;;;;5202322;28;20177;-48
2023/09/12 00:27:12;;;;;;;19.77;11.30;;;20.40;99.90;;;;;;5201169;28;20730;-47
2023/09/12 00:29:43;;;;;;;18.90;11.80;;;20.40;99.90;;;;;;5207241;28;20598;-47
2023/09/12 00:32:13;;;;;;;16.40;11.60;;;20.30;99.90;;;;;;5202669;28;20199;-48
2023/09/12 00:34:44;;;;;;;17.23;11.23;;;20.30;99.90;;;;;;5203596;28;20183;-47
2023/09/12 00:37:15;;;;;;;23.43;11.30;;;20.20;99.90;;;;;;5198042;28;20731;-47
2023/09/12 00:39:47;;;;;;;32.20;12.37;;;20.20;99.90;;;;;;5203466;28;20705;-48
2023/09/12 00:42:17;;;;;;;20.73;10.57;;;20.20;99.90;;;;;;5198955;28;20242;-48
2023/09/12 00:44:48;;;;;;;19.93;10.43;;;20.20;99.90;;;;;;5201811;28;20434;-48
2023/09/12 00:47:21;;;;;;;15.37;10.43;;;20.10;99.90;;;;;;5203595;28;20274;-48
2023/09/12 00:49:53;;;;;;;35.13;11.13;;;20.10;99.90;;;;;;5199124;28;20195;-48
2023/09/12 00:52:28;;;;;;;15.30;11.43;;;20.10;99.90;;;;;;5196118;28;20823;-50
2023/09/12 00:54:59;;;;;;;18.47;11.43;;;20.10;99.90;;;;;;5194539;28;20445;-47
2023/09/12 00:57:32;;;;;;;16.47;10.40;;;20.10;99.90;;;;;;5199610;28;20970;-49
2023/09/12 01:00:12;;;;;;;16.33;9.80;;;20.10;99.90;;;;;;5196694;28;20184;-50
2023/09/12 01:02:45;;;;;;;14.80;9.50;;;20.10;99.90;;;;;;5195239;28;20423;-48
2023/09/12 01:05:16;;;;;;;15.27;9.50;;;20.00;99.90;;;;;;5206775;28;20810;-48
2023/09/12 01:07:47;;;;;;;13.60;10.60;;;20.00;99.90;;;;;;5200702;28;20438;-48
2023/09/12 01:10:18;;;;;;;21.07;11.20;;;20.00;99.90;;;;;;5206765;28;20895;-48
2023/09/12 01:12:49;;;;;;;12.97;10.50;;;20.00;99.90;;;;;;5203782;28;20183;-48
2023/09/12 01:15:19;;;;;;;17.03;10.63;;;20.00;99.90;;;;;;5196692;28;20185;-48
2023/09/12 01:17:50;;;;;;;24.07;12.40;;;19.90;99.90;;;;;;5207301;28;20546;-48
2023/09/12 01:20:44;;;;;;;22.83;11.20;;;19.90;99.90;;;;;;5203201;28;20238;-47
2023/09/12 01:23:15;;;;;;;17.83;10.90;;;19.90;99.90;;;;;;5198810;28;20184;-48
2023/09/12 01:26:31;;;;;;;15.50;9.73;;;19.80;99.90;;;;;;5203079;28;20427;-47
2023/09/12 01:29:05;;;;;;;15.57;10.20;;;19.80;99.90;;;;;;5176563;28;20438;-48
2023/09/12 01:31:39;;;;;;;14.00;9.73;;;19.70;99.90;;;;;;5193788;28;21017;-46
2023/09/12 01:34:11;;;;;;;23.10;12.00;;;19.70;99.90;;;;;;5191350;28;20434;-47
2023/09/12 01:36:42;;;;;;;19.37;11.30;;;19.70;99.90;;;;;;5197492;28;20511;-48
2023/09/12 01:39:13;;;;;;;13.77;10.73;;;19.70;99.90;;;;;;5194532;28;21046;-51
2023/09/12 01:41:47;;;;;;;19.33;11.43;;;19.70;99.90;;;;;;5204166;28;20222;-47
2023/09/12 01:44:18;;;;;;;15.20;9.80;;;19.70;99.90;;;;;;5179610;28;20456;-50
2023/09/12 01:46:52;;;;;;;31.53;10.47;;;19.70;99.90;;;;;;5196681;28;20974;-47
2023/09/12 01:49:26;;;;;;;15.57;10.57;;;19.60;99.90;;;;;;5195318;28;21002;-48
2023/09/12 01:51:59;;;;;;;21.17;11.57;;;19.60;99.90;;;;;;5198447;28;20954;-48
2023/09/12 01:54:30;;;;;;;16.30;10.50;;;19.60;99.90;;;;;;5201304;28;20439;-48
2023/09/12 01:57:01;;;;;;;16.80;11.07;;;19.60;99.90;;;;;;5204636;28;20472;-48
2023/09/12 01:59:32;;;;;;;20.50;10.80;;;19.50;99.90;;;;;;5200530;28;20426;-48
2023/09/12 02:02:03;;;;;;;18.50;10.93;;;19.50;99.90;;;;;;5193522;28;20518;-47
2023/09/12 02:04:34;;;;;;;17.77;11.13;;;19.50;99.90;;;;;;5196284;28;20177;-47
2023/09/12 02:07:04;;;;;;;20.03;11.43;;;19.50;99.90;;;;;;5197080;28;20430;-47
2023/09/12 02:09:35;;;;;;;18.90;10.30;;;19.50;99.90;;;;;;5196428;28;20545;-48
2023/09/12 02:12:06;;;;;;;19.80;12.27;;;19.40;99.90;;;;;;5193708;28;20200;-46
2023/09/12 02:14:37;;;;;;;12.70;10.13;;;19.40;99.90;;;;;;5190944;28;20283;-46
2023/09/12 02:17:08;;;;;;;23.40;11.10;;;19.40;99.90;;;;;;5194506;28;20226;-48
2023/09/12 02:19:39;;;;;;;13.70;11.07;;;19.40;99.90;;;;;;5192997;28;20443;-49
2023/09/12 02:22:09;;;;;;;15.83;11.13;;;19.30;99.90;;;;;;5201756;28;20206;-48
2023/09/12 02:24:40;;;;;;;17.90;11.50;;;19.30;99.90;;;;;;5210012;28;20184;-47
2023/09/12 02:27:11;;;;;;;16.30;11.20;;;19.30;99.90;;;;;;5201946;28;20186;-48
2023/09/12 02:29:42;;;;;;;17.00;10.40;;;19.30;99.90;;;;;;5198472;28;20210;-48
2023/09/12 02:32:13;;;;;;;24.93;10.93;;;19.30;99.90;;;;;;5196607;28;20217;-47
2023/09/12 02:34:44;;;;;;;14.60;9.23;;;19.30;99.90;;;;;;5197507;28;20450;-48
2023/09/12 02:37:15;;;;;;;19.90;10.90;;;19.30;99.90;;;;;;5198206;28;20459;-49
2023/09/12 02:39:46;;;;;;;21.37;12.63;;;19.30;99.90;;;;;;5192325;28;20208;-48
2023/09/12 02:42:17;;;;;;;15.73;10.77;;;19.20;99.90;;;;;;5201450;28;20598;-47
2023/09/12 02:44:47;;;;;;;17.37;10.17;;;19.20;99.90;;;;;;5194179;28;20659;-48
2023/09/12 02:47:18;;;;;;;15.07;10.93;;;19.20;99.90;;;;;;5200650;28;20180;-48
2023/09/12 02:49:49;;;;;;;13.73;11.13;;;19.10;99.90;;;;;;5195634;28;20276;-47
2023/09/12 02:52:20;;;;;;;17.03;11.30;;;19.10;99.90;;;;;;5201367;28;20208;-48
2023/09/12 02:54:50;;;;;;;18.13;10.87;;;19.10;99.90;;;;;;5190655;28;20637;-47
2023/09/12 02:57:21;;;;;;;21.93;11.40;;;19.10;99.90;;;;;;5198707;28;20200;-47
2023/09/12 02:59:52;;;;;;;18.53;11.77;;;19.10;99.90;;;;;;5205719;28;20171;-47
2023/09/12 03:02:22;;;;;;;18.17;12.00;;;19.20;99.90;;;;;;5201848;28;20200;-48
2023/09/12 03:04:53;;;;;;;25.40;12.00;;;19.20;99.90;;;;;;5196234;28;20184;-48
2023/09/12 03:07:24;;;;;;;15.07;10.70;;;19.20;99.90;;;;;;5182769;28;20610;-48
2023/09/12 03:09:54;;;;;;;15.13;9.73;;;19.20;99.90;;;;;;5193535;28;20211;-47
2023/09/12 03:12:25;;;;;;;15.93;11.30;;;19.20;99.90;;;;;;5200621;28;20208;-48
2023/09/12 03:14:56;;;;;;;16.83;10.70;;;19.20;99.90;;;;;;5204273;28;20183;-49
2023/09/12 03:17:28;;;;;;;15.57;10.00;;;19.20;99.90;;;;;;5203503;28;20689;-48
2023/09/12 03:20:00;;;;;;;18.30;10.27;;;19.20;99.90;;;;;;5204391;28;20530;-48
2023/09/12 03:22:32;;;;;;;14.60;11.17;;;19.20;99.90;;;;;;5192919;28;20463;-47
2023/09/12 03:25:04;;;;;;;15.60;10.33;;;19.10;99.90;;;;;;5199708;28;20438;-48
2023/09/12 03:27:35;;;;;;;21.67;11.30;;;19.10;99.90;;;;;;5196533;28;20431;-48
2023/09/12 03:30:06;;;;;;;17.87;11.00;;;19.10;99.90;;;;;;5194775;28;20965;-49
2023/09/12 03:32:37;;;;;;;18.20;10.13;;;19.10;99.90;;;;;;5193274;28;20224;-50
2023/09/12 03:35:08;;;;;;;13.50;10.03;;;19.10;99.90;;;;;;5196423;28;20473;-48
2023/09/12 03:37:42;;;;;;;17.03;11.27;;;19.00;99.90;;;;;;5218223;28;20252;-48
2023/09/12 03:40:13;;;;;;;16.00;10.73;;;19.00;99.90;;;;;;5199202;28;20194;-48
2023/09/12 03:42:44;;;;;;;15.03;10.77;;;19.00;99.90;;;;;;5200427;28;20794;-48
2023/09/12 03:45:15;;;;;;;13.20;10.47;;;19.00;99.90;;;;;;5202191;28;20184;-48
2023/09/12 03:47:46;;;;;;;15.40;10.77;;;19.10;99.90;;;;;;5203082;28;20222;-48
2023/09/12 03:50:17;;;;;;;16.10;10.97;;;19.00;99.90;;;;;;5195258;28;20656;-48
2023/09/12 03:52:48;;;;;;;20.30;12.07;;;19.00;99.90;;;;;;5196255;28;20466;-47
2023/09/12 03:55:18;;;;;;;17.57;10.30;;;19.00;99.90;;;;;;5196180;28;20250;-48
2023/09/12 03:57:49;;;;;;;32.33;12.93;;;19.00;99.90;;;;;;5202565;28;20266;-48
2023/09/12 04:00:20;;;;;;;16.20;11.40;;;19.00;99.90;;;;;;5204914;28;20187;-47
2023/09/12 04:02:51;;;;;;;14.07;9.90;;;19.00;99.90;;;;;;5196141;28;20188;-47
2023/09/12 04:05:22;;;;;;;24.00;12.37;;;18.90;99.90;;;;;;5194504;28;20616;-47
2023/09/12 04:07:52;;;;;;;19.60;12.53;;;18.90;99.90;;;;;;5205132;28;20189;-47
2023/09/12 04:10:23;;;;;;;17.77;11.00;;;18.90;99.90;;;;;;5195061;28;20180;-48
2023/09/12 04:12:54;;;;;;;17.50;12.93;;;18.80;99.90;;;;;;5196970;28;20191;-47
2023/09/12 04:15:25;;;;;;;18.23;11.87;;;18.80;99.90;;;;;;5197113;28;20188;-47
2023/09/12 04:17:55;;;;;;;23.83;11.70;;;18.80;99.90;;;;;;5193252;28;20301;-47
2023/09/12 04:20:26;;;;;;;16.33;11.27;;;18.80;99.90;;;;;;5203659;28;20176;-47
2023/09/12 04:22:57;;;;;;;23.63;11.47;;;18.80;99.90;;;;;;5200588;28;20179;-47
2023/09/12 04:25:28;;;;;;;17.00;10.73;;;18.80;99.90;;;;;;5201705;28;20495;-49
2023/09/12 04:27:58;;;;;;;21.57;11.80;;;18.80;99.90;;;;;;5196902;28;20756;-47
2023/09/12 04:30:29;;;;;;;14.40;10.90;;;18.80;99.90;;;;;;5198882;28;20180;-46
2023/09/12 04:33:00;;;;;;;14.37;10.50;;;18.80;99.90;;;;;;5205392;28;20175;-47
2023/09/12 04:35:33;;;;;;;16.93;9.70;;;18.90;99.90;;;;;;5202335;28;20719;-48
2023/09/12 04:38:04;;;;;;;14.30;10.50;;;18.90;99.90;;;;;;5201559;28;20454;-46
2023/09/12 04:40:35;;;;;;;18.80;10.17;;;18.90;99.90;;;;;;5200660;28;20462;-47
2023/09/12 04:43:07;;;;;;;15.17;11.27;;;18.90;99.90;;;;;;5197710;28;20176;-47
2023/09/12 04:45:38;;;;;;;21.33;11.37;;;19.00;99.90;;;;;;5192446;28;20803;-48
2023/09/12 04:48:08;;;;;;;17.83;9.93;;;19.00;99.90;;;;;;5196181;28;20431;-48
2023/09/12 04:50:43;;;;;;;15.87;10.60;;;19.10;99.90;;;;;;5226391;28;20631;-57
2023/09/12 04:53:13;;;;;;;20.40;11.60;;;19.10;99.90;;;;;;5232940;28;20185;-49
2023/09/12 04:55:44;;;;;;;19.20;11.47;;;19.10;99.90;;;;;;5244923;28;20805;-49
2023/09/12 04:58:15;;;;;;;18.23;10.33;;;19.30;99.90;;;;;;5239057;28;20210;-49
2023/09/12 05:00:46;;;;;;;22.17;11.43;;;19.30;99.90;;;;;;5247368;28;20671;-48
2023/09/12 05:03:16;;;;;;;13.90;10.07;;;19.40;99.90;;;;;;5232435;28;20186;-49
2023/09/12 05:05:48;;;;;;;13.37;9.83;;;19.50;99.90;;;;;;5240940;28;20187;-49
2023/09/12 05:08:19;;;;;;;13.77;10.17;;;19.70;99.90;;;;;;5238763;28;20190;-49
2023/09/12 05:10:50;;;;;;;22.93;11.03;;;19.80;99.90;;;;;;5226945;28;21657;-48
2023/09/12 05:13:20;;;;;;;16.90;12.40;;;19.90;99.90;;;;;;5244698;28;20494;-49
2023/09/12 05:15:51;;;;;;;16.87;11.33;;;20.00;99.90;;;;;;5246749;28;20186;-49
2023/09/12 05:18:22;;;;;;;14.73;10.93;;;20.10;99.90;;;;;;5237554;28;20249;-50
2023/09/12 05:20:52;;;;;;;29.17;10.70;;;20.30;99.90;;;;;;5243842;28;20261;-50
2023/09/12 05:23:23;;;;;;;15.50;10.93;;;20.40;99.90;;;;;;5228159;28;20174;-49
2023/09/12 05:25:54;;;;;;;18.70;11.77;;;20.50;99.90;;;;;;5243500;28;20178;-49
2023/09/12 05:28:25;;;;;;;17.10;10.73;;;20.70;99.90;;;;;;5238549;28;20244;-50
2023/09/12 05:30:55;;;;;;;16.40;11.00;;;20.90;99.90;;;;;;5237886;28;20210;-48
2023/09/12 05:33:26;;;;;;;16.17;9.63;;;21.00;99.90;;;;;;5246981;28;20190;-48
2023/09/12 05:35:58;;;;;;;11.90;9.40;;;21.20;99.90;;;;;;5244454;28;20241;-49
2023/09/12 05:38:29;;;;;;;13.63;8.80;;;21.40;99.90;;;;;;5236105;28;20625;-49
2023/09/12 05:40:59;;;;;;;13.77;10.30;;;21.70;99.90;;;;;;5241919;28;20472;-51
2023/09/12 05:43:30;;;;;;;19.57;10.47;;;22.00;99.90;;;;;;5221192;28;20214;-50
2023/09/12 05:46:02;;;;;;;18.07;10.20;;;22.10;99.90;;;;;;5222691;28;20202;-50
2023/09/12 05:48:33;;;;;;;18.13;11.00;;;22.20;99.90;;;;;;5240738;28;21015;-49
2023/09/12 05:51:04;;;;;;;19.13;10.20;;;22.10;99.90;;;;;;5218741;28;20316;-49
2023/09/12 05:53:34;;;;;;;12.00;9.20;;;22.00;99.90;;;;;;5217236;28;20643;-49
2023/09/12 05:56:05;;;;;;;23.63;11.33;;;22.00;99.90;;;;;;5215845;28;20191;-49
2023/09/12 05:58:41;;;;;;;17.93;10.47;;;22.20;99.90;;;;;;5216696;28;20215;-49
2023/09/12 06:01:12;;;;;;;11.77;9.50;;;23.00;99.90;;;;;;5213162;28;20674;-50
2023/09/12 06:03:42;;;;;;;26.37;11.23;;;24.20;99.90;;;;;;5239583;28;20433;-49
2023/09/12 06:06:14;;;;;;;26.60;11.00;;;25.80;97.60;;;;;;5228300;28;20189;-49
2023/09/12 06:08:45;;;;;;;14.27;9.60;;;27.80;91.90;;;;;;5207193;28;20234;-49
2023/09/12 06:11:15;;;;;;;16.23;9.77;;;29.80;76.20;;;;;;5221364;28;20469;-50
2023/09/12 06:13:46;;;;;;;14.03;8.53;;;31.30;63.50;;;;;;5227109;28;20201;-50
2023/09/12 06:16:17;;;;;;;8.20;7.00;;;32.50;56.40;;;;;;5233204;28;20185;-51
2023/09/12 06:18:48;;;;;;;17.37;8.77;;;33.70;52.60;;;;;;5248320;28;20206;-50
2023/09/12 06:21:21;;;;;;;9.30;7.20;;;34.70;48.90;;;;;;5246113;28;20212;-51
2023/09/12 06:24:11;;;;;;;9.43;7.30;;;35.70;45.30;;;;;;5219057;28;20428;-50
2023/09/12 06:26:42;;;;;;;7.67;6.50;;;36.40;41.50;;;;;;5211877;28;20191;-51
2023/09/12 06:29:14;;;;;;;20.23;8.27;;;37.00;40.20;;;;;;5226062;28;20198;-50
2023/09/12 06:31:44;;;;;;;13.73;8.07;;;37.60;38.30;;;;;;5197322;28;20197;-51
2023/09/12 06:34:15;;;;;;;13.47;8.67;;;37.60;37.40;;;;;;5240021;28;20198;-51
2023/09/12 06:36:46;;;;;;;10.45;7.20;;;37.30;37.40;;;;;;5241164;28;20260;-51
2023/09/12 06:39:17;;;;;;;9.52;6.70;;;37.40;36.90;;;;;;5245986;28;20205;-52
2023/09/12 06:41:47;;;;;;;15.23;7.28;;;37.60;36.40;;;;;;5209569;28;20570;-51
2023/09/12 06:44:18;;;;;;;15.45;6.05;;;37.70;36.00;;;;;;5249622;28;20676;-49
2023/09/12 06:46:49;;;;;;;15.30;6.18;;;37.90;35.30;;;;;;5240790;28;20182;-52
2023/09/12 06:49:19;;;;;;;15.10;6.88;;;38.30;34.60;;;;;;5225246;28;20868;-52
2023/09/12 06:51:50;;;;;;;10.63;6.82;;;39.00;34.00;;;;;;5246905;28;20896;-51
2023/09/12 06:54:21;;;;;;;16.75;6.60;;;39.40;32.70;;;;;;5244379;28;20186;-51
2023/09/12 06:56:51;;;;;;;9.70;6.97;;;39.50;32.10;;;;;;5237358;28;20209;-52
2023/09/12 06:59:22;;;;;;;10.38;7.00;;;39.50;31.70;;;;;;5229349;28;20235;-50
2023/09/12 07:01:53;;;;;;;15.55;5.93;;;39.50;32.00;;;;;;5223111;28;20263;-52
2023/09/12 07:04:24;;;;;;;7.38;5.20;;;40.00;31.50;;;;;;5226564;28;20216;-53
2023/09/12 07:06:54;;;;;;;10.18;5.10;;;40.30;30.50;;;;;;5228957;28;20182;-51
2023/09/12 07:09:25;;;;;;;11.23;5.78;;;40.40;30.20;;;;;;5230560;28;20197;-51
2023/09/12 07:11:56;;;;;;;11.63;6.28;;;40.60;30.00;;;;;;5248040;28;20198;-52
2023/09/12 07:14:26;;;;;;;14.40;5.78;;;40.60;30.00;;;;;;5224602;28;20178;-51
2023/09/12 07:16:57;;;;;;;7.93;5.10;;;40.90;30.00;;;;;;5243533;28;20198;-52
2023/09/12 07:19:28;;;;;;;11.60;8.07;;;41.50;29.60;;;;;;5216070;28;20185;-51
2023/09/12 07:21:59;;;;;;;21.45;7.18;;;41.90;29.00;;;;;;5227176;28;20233;-51
2023/09/12 07:24:29;;;;;;;11.40;6.25;;;41.90;28.90;;;;;;5242433;28;20178;-50
2023/09/12 07:27:00;;;;;;;12.02;6.35;;;41.60;29.00;;;;;;5238750;28;20193;-52
2023/09/12 07:29:31;;;;;;;10.25;6.35;;;41.70;29.00;;;;;;5239328;28;20240;-50
2023/09/12 07:32:01;;;;;;;16.15;6.25;;;41.60;28.90;;;;;;5237912;28;20202;-53
2023/09/12 07:34:33;;;;;;;17.73;4.93;;;41.50;29.00;;;;;;5222060;28;20185;-50
2023/09/12 07:37:04;;;;;;;13.70;4.72;;;41.60;28.80;;;;;;5241174;28;20198;-51
2023/09/12 07:39:34;;;;;;;8.95;5.05;;;41.80;28.90;;;;;;5226022;28;20608;-49
2023/09/12 07:42:05;;;;;;;8.23;5.63;;;41.90;28.70;;;;;;5240892;28;20293;-50
2023/09/12 07:44:36;;;;;;;10.18;5.32;;;41.90;28.60;;;;;;5244592;28;20181;-52
2023/09/12 07:47:07;;;;;;;13.65;5.63;;;42.20;28.50;;;;;;5227543;28;20241;-52
2023/09/12 07:49:38;;;;;;;13.57;5.35;;;41.80;28.70;;;;;;5227209;28;20590;-52
2023/09/12 07:52:09;;;;;;;10.35;4.47;;;41.90;28.70;;;;;;5237248;28;20202;-50
2023/09/12 07:54:39;;;;;;;11.65;4.95;;;41.60;29.00;;;;;;5213051;28;20182;-52
2023/09/12 07:57:10;;;;;;;13.73;6.47;;;41.70;28.80;;;;;;5236010;28;20241;-52
2023/09/12 07:59:41;;;;;;;9.95;5.03;;;41.70;28.80;;;;;;5215323;28;20189;-50
2023/09/12 08:02:12;;;;;;;16.40;5.40;;;41.70;28.90;;;;;;5236029;28;20696;-51
2023/09/12 08:04:43;;;;;;;9.55;4.40;;;41.20;29.20;;;;;;5238666;28;20185;-51
2023/09/12 08:07:14;;;;;;;7.63;5.65;;;40.20;30.30;;;;;;5230668;28;20241;-51
2023/09/12 08:09:50;;;;;;;14.13;5.03;;;39.40;31.50;;;;;;5219278;28;20281;-52
2023/09/12 08:12:22;;;;;;;16.30;5.50;;;38.50;32.50;;;;;;5213661;28;20210;-50
2023/09/12 08:14:59;;;;;;;16.75;5.47;;;37.40;34.10;;;;;;5233404;28;20225;-49
2023/09/12 08:17:31;;;;;;;7.80;5.45;;;36.30;35.80;;;;;;5238042;28;20275;-49
2023/09/12 08:20:03;;;;;;;6.53;5.25;;;35.60;36.90;;;;;;5234395;28;20185;-49
2023/09/12 08:22:33;;;;;;;5.75;4.57;;;35.00;37.90;;;;;;5239391;28;20194;-49
2023/09/12 08:25:05;;;;;;;16.70;5.75;;;34.50;38.80;;;;;;5236460;28;20181;-49
2023/09/12 08:27:36;;;;;;;14.23;5.88;;;33.80;39.30;;;;;;5223832;28;20268;-49
2023/09/12 08:30:07;;;;;;;12.82;5.68;;;32.90;40.80;;;;;;5234518;28;20546;-50
2023/09/12 08:32:39;;;;;;;15.23;6.43;;;32.20;42.20;;;;;;5239141;28;20635;-49
2023/09/12 08:35:12;;;;;;;10.20;4.87;;;31.40;42.40;;;;;;5242092;28;20213;-50
2023/09/12 08:37:43;;;;;;;10.10;5.30;;;30.50;44.00;;;;;;5221862;28;20205;-50
2023/09/12 08:40:14;;;;;;;12.80;6.53;;;30.00;45.00;;;;;;5238511;28;20677;-50
2023/09/12 08:42:46;;;;;;;8.57;5.10;;;29.70;45.80;;;;;;5242543;28;20184;-50
2023/09/12 08:45:18;;;;;;;9.63;4.50;;;29.70;46.30;;;;;;5229848;28;20416;-50
2023/09/12 08:47:55;;;;;;;7.83;4.60;;;29.50;46.60;;;;;;5232062;28;20504;-50
2023/09/12 08:50:28;;;;;;;12.03;5.17;;;29.50;46.90;;;;;;5240713;28;20444;-49
2023/09/12 08:52:59;;;;;;;9.70;6.30;;;29.50;46.80;;;;;;5212367;28;20443;-50
2023/09/12 08:55:33;;;;;;;7.30;5.37;;;29.50;46.70;;;;;;5230493;28;20445;-50
2023/09/12 08:58:05;;;;;;;44.00;12.20;;;29.40;46.70;;;;;;5239831;28;20858;-50
2023/09/12 09:00:36;;;;;;;25.30;7.23;;;29.20;47.10;;;;;;5219949;28;20440;-50
2023/09/12 09:03:07;;;;;;;13.00;5.30;;;29.00;47.70;;;;;;5229592;28;20448;-50
2023/09/12 09:05:42;;;;;;;12.43;5.63;;;28.90;48.00;;;;;;5235834;28;20455;-50
2023/09/12 09:08:14;;;;;;;7.70;5.07;;;28.70;48.50;;;;;;5228175;28;20436;-50
2023/09/12 09:11:05;;;;;;;15.13;5.53;;;28.70;49.00;;;;;;5240235;28;20455;-50
2023/09/12 09:13:36;;;;;;;15.70;5.73;;;28.80;49.00;;;;;;5229427;28;20475;-50
2023/09/12 09:16:18;;;;;;;16.97;4.67;;;28.80;49.30;;;;;;5227582;28;20487;-50
2023/09/12 09:18:51;;;;;;;15.97;5.40;;;28.90;49.10;;;;;;5210349;28;20206;-49
2023/09/12 09:21:25;;;;;;;9.50;4.30;;;28.70;49.50;;;;;;5241135;28;20443;-49
2023/09/12 09:23:58;;;;;;;7.37;4.70;;;28.60;50.10;;;;;;5242025;28;20425;-51
2023/09/12 09:26:50;;;;;;;12.50;5.13;;;28.50;50.50;;;;;;5230721;28;20444;-50
2023/09/12 09:29:21;;;;;;;17.70;5.20;;;28.30;51.20;;;;;;5231175;28;20475;-50
2023/09/12 09:31:52;;;;;;;16.80;6.57;;;28.30;51.60;;;;;;5225312;28;20445;-50
2023/09/12 09:34:24;;;;;;;9.47;5.70;;;28.40;52.30;;;;;;5231302;28;20921;-50
2023/09/12 09:36:57;;;;;;;16.40;6.87;;;28.40;52.50;;;;;;5238190;28;20787;-49
2023/09/12 09:39:28;;;;;;;11.20;5.57;;;28.40;53.10;;;;;;5219383;28;21026;-50
2023/09/12 09:41:59;;;;;;;16.30;5.70;;;28.40;53.70;;;;;;5230161;28;20804;-52
2023/09/12 09:44:31;;;;;;;13.83;4.90;;;28.20;54.10;;;;;;5231036;28;20546;-50
2023/09/12 09:47:02;;;;;;;13.50;6.80;;;28.20;54.60;;;;;;5240602;28;20171;-50
2023/09/12 09:49:37;;;;;;;16.30;7.87;;;28.00;54.90;;;;;;5245176;28;20425;-49
2023/09/12 09:52:07;;;;;;;15.17;5.77;;;27.90;55.80;;;;;;5241861;28;20290;-51
2023/09/12 09:54:44;;;;;;;24.20;7.87;;;27.90;56.20;;;;;;5239603;28;20497;-50
2023/09/12 09:57:15;;;;;;;12.53;6.50;;;27.80;56.40;;;;;;5236821;28;20210;-50
2023/09/12 09:59:53;;;;;;;14.73;7.43;;;27.80;56.50;;;;;;5234179;28;20424;-56
2023/09/12 10:02:26;;;;;;;10.93;7.00;;;27.80;57.00;;;;;;5244058;28;20592;-51
2023/09/12 10:04:58;;;;;;;21.23;7.50;;;27.90;57.20;;;;;;5235269;28;20442;-50
2023/09/12 10:07:33;;;;;;;12.07;6.27;;;27.90;57.40;;;;;;5230875;28;20445;-50
2023/09/12 10:10:04;;;;;;;12.47;7.07;;;27.90;57.40;;;;;;5228284;28;20433;-49
2023/09/12 10:12:37;;;;;;;15.70;7.67;;;27.70;57.90;;;;;;5228898;28;20489;-52
2023/09/12 10:15:10;;;;;;;36.40;7.97;;;27.80;58.00;;;;;;5211801;28;20502;-51
2023/09/12 10:17:42;;;;;;;28.33;8.17;;;27.60;57.30;;;;;;5239238;28;20469;-51
2023/09/12 10:20:16;;;;;;;14.97;6.63;;;27.60;57.40;;;;;;5234299;28;20468;-50
2023/09/12 10:22:58;;;;;;;15.40;7.03;;;27.50;57.40;;;;;;5238090;28;20443;-50
2023/09/12 10:25:30;;;;;;;11.20;6.47;;;27.50;57.60;;;;;;5211023;28;20951;-50
2023/09/12 10:28:01;;;;;;;17.33;6.17;;;27.50;56.90;;;;;;5235418;28;20417;-50
2023/09/12 10:30:33;;;;;;;18.03;7.00;;;27.60;56.50;;;;;;5236020;28;20440;-51
2023/09/12 10:33:05;;;;;;;13.23;6.13;;;27.60;56.90;;;;;;5227254;28;20436;-50
2023/09/12 10:35:38;;;;;;;15.83;6.90;;;27.70;56.40;;;;;;5210544;28;20847;-51
2023/09/12 10:38:09;;;;;;;8.23;5.77;;;27.70;56.70;;;;;;5228016;28;20496;-50
2023/09/12 10:40:41;;;;;;;13.40;6.23;;;27.80;56.80;;;;;;5243847;28;20511;-50
2023/09/12 10:43:14;;;;;;;10.47;7.07;;;27.80;57.20;;;;;;5239843;28;20464;-50
2023/09/12 10:45:45;;;;;;;10.13;6.17;;;27.80;57.20;;;;;;5232748;28;20429;-50
2023/09/12 10:48:16;;;;;;;11.60;6.17;;;27.90;57.40;;;;;;5239216;28;20468;-50
2023/09/12 10:50:47;;;;;;;25.80;6.53;;;28.10;57.30;;;;;;5244293;28;20495;-50
2023/09/12 10:53:24;;;;;;;13.23;6.30;;;28.10;57.00;;;;;;5237056;28;20530;-50
2023/09/12 10:56:15;;;;;;;9.77;5.80;;;28.20;57.00;;;;;;5239091;28;20846;-49
2023/09/12 10:59:06;;;;;;;19.30;5.37;;;28.20;56.90;;;;;;5240038;28;20530;-51
2023/09/12 11:01:38;;;;;;;18.80;6.67;;;28.20;57.00;;;;;;5225776;28;20453;-51
2023/09/12 11:04:27;;;;;;;10.93;6.13;;;28.20;56.60;;;;;;5228959;28;20910;-50
2023/09/12 11:06:58;;;;;;;35.07;5.97;;;28.30;56.40;;;;;;5243147;28;20434;-50
2023/09/12 11:09:29;;;;;;;10.30;5.53;;;28.40;56.80;;;;;;5234027;28;20806;-51
2023/09/12 11:12:04;;;;;;;9.73;5.53;;;28.40;57.10;;;;;;5224837;28;20306;-50
2023/09/12 11:14:37;;;;;;;17.53;5.93;;;28.30;57.00;;;;;;5233312;28;20195;-51
2023/09/12 11:17:08;;;;;;;22.93;6.50;;;28.40;57.20;;;;;;5224482;28;20462;-50
2023/09/12 11:19:52;;;;;;;13.57;6.10;;;28.40;57.30;;;;;;5224810;28;20525;-51
2023/09/12 11:22:28;;;;;;;11.53;4.80;;;28.50;57.00;;;;;;5219355;28;20706;-50
2023/09/12 11:25:05;;;;;;;6.13;5.00;;;28.60;56.80;;;;;;5226474;28;20571;-50
2023/09/12 11:27:51;;;;;;;12.30;5.83;;;28.70;56.80;;;;;;5224337;28;20478;-50
2023/09/12 11:30:42;;;;;;;12.50;5.70;;;28.70;56.60;;;;;;5222085;28;20448;-50
2023/09/12 11:33:13;;;;;;;8.00;5.33;;;28.80;56.40;;;;;;5236460;28;20439;-51
2023/09/12 11:35:45;;;;;;;6.90;4.23;;;28.70;56.30;;;;;;5239264;28;20929;-50
2023/09/12 11:38:27;;;;;;;8.10;4.87;;;28.80;56.30;;;;;;5231147;28;20213;-52
2023/09/12 11:40:59;;;;;;;11.67;4.80;;;28.90;56.10;;;;;;5214903;28;20841;-50
2023/09/12 11:43:30;;;;;;;19.83;5.70;;;28.80;55.70;;;;;;5238790;28;20424;-52
2023/09/12 11:46:02;;;;;;;10.50;5.23;;;28.80;56.10;;;;;;5227892;28;20424;-52
2023/09/12 11:48:32;;;;;;;16.10;4.67;;;28.80;56.10;;;;;;5239489;28;20210;-52
2023/09/12 11:51:08;;;;;;;11.30;4.80;;;28.90;55.90;;;;;;5235650;28;20475;-51
2023/09/12 11:53:38;;;;;;;8.87;4.50;;;28.90;55.80;;;;;;5238088;28;20185;-51
2023/09/12 11:56:10;;;;;;;6.53;5.03;;;28.90;55.70;;;;;;5234882;28;20561;-52
2023/09/12 11:58:40;;;;;;;6.17;4.97;;;28.90;55.80;;;;;;5224359;28;20213;-51
2023/09/12 12:01:13;;;;;;;15.20;5.33;;;28.90;55.80;;;;;;5236378;28;20454;-51
2023/09/12 12:03:44;;;;;;;8.70;5.77;;;28.90;55.70;;;;;;5239945;28;20185;-51
2023/09/12 12:06:15;;;;;;;12.40;5.30;;;28.80;55.70;;;;;;5238067;28;20497;-51
2023/09/12 12:08:46;;;;;;;5.53;3.87;;;28.80;55.70;;;;;;5231263;28;20178;-50
2023/09/12 12:11:16;;;;;;;5.37;4.83;;;28.70;55.90;;;;;;5227516;28;20210;-51
2023/09/12 12:13:51;;;;;;;16.17;4.13;;;28.70;56.00;;;;;;5234327;28;20190;-51
2023/09/12 12:16:22;;;;;;;9.33;4.90;;;28.70;55.90;;;;;;5226365;28;20196;-49
2023/09/12 12:18:55;;;;;;;5.33;4.40;;;28.70;55.70;;;;;;5226318;28;20470;-52
2023/09/12 12:21:27;;;;;;;11.23;5.07;;;28.90;55.60;;;;;;5240217;28;20956;-50
2023/09/12 12:24:02;;;;;;;14.17;5.00;;;28.80;55.40;;;;;;5213466;28;20432;-49
2023/09/12 12:26:34;;;;;;;15.57;5.63;;;28.80;55.30;;;;;;5229786;28;20476;-49
2023/09/12 12:29:05;;;;;;;8.10;4.10;;;28.80;55.70;;;;;;5242257;28;20427;-49
2023/09/12 12:31:36;;;;;;;5.23;4.47;;;28.70;55.90;;;;;;5201495;28;20446;-51
2023/09/12 12:34:07;;;;;;;9.67;4.40;;;28.70;55.80;;;;;;5228814;28;20428;-50
2023/09/12 12:36:42;;;;;;;8.80;5.40;;;28.80;55.50;;;;;;5235690;28;20491;-50
2023/09/12 12:39:14;;;;;;;7.20;5.07;;;28.90;55.60;;;;;;5239080;28;20214;-51
2023/09/12 12:41:45;;;;;;;5.90;4.40;;;29.00;55.40;;;;;;5242413;28;21048;-51
2023/09/12 12:44:15;;;;;;;8.23;4.37;;;29.20;55.20;;;;;;5220331;28;20432;-49
2023/09/12 12:46:53;;;;;;;4.80;3.87;;;29.10;54.90;;;;;;5227934;28;20288;-51
2023/09/12 12:49:24;;;;;;;12.27;4.90;;;29.20;55.80;;;;;;5215089;28;20186;-51
2023/09/12 12:51:56;;;;;;;10.23;5.87;;;29.20;55.30;;;;;;5220790;28;20455;-49
2023/09/12 12:54:32;;;;;;;8.03;4.40;;;29.30;55.30;;;;;;5235546;28;20432;-50
2023/09/12 12:57:03;;;;;;;4.67;3.87;;;29.30;55.10;;;;;;5218836;28;20496;-49
2023/09/12 12:59:36;;;;;;;5.30;3.97;;;29.40;55.10;;;;;;5223520;28;20440;-50